createdAt,value
2023-05-17T00:00:53.699Z,84.33
2023-05-17T00:03:22.216Z,86.15
2023-05-17T00:05:52.065Z,87.11
2023-05-17T00:08:20.588Z,87.63
2023-05-17T00:10:49.028Z,86.50
2023-05-17T00:13:17.498Z,88.32
2023-05-17T00:15:46.089Z,89.50
2023-05-17T00:18:14.725Z,90.32
2023-05-17T00:20:43.314Z,90.44
2023-05-17T00:23:13.210Z,89.80
2023-05-17T00:25:41.736Z,89.29
2023-05-17T00:28:10.122Z,90.47
2023-05-17T00:30:38.612Z,90.80
2023-05-17T00:33:07.043Z,90.22
2023-05-17T00:35:35.549Z,90.16
2023-05-17T00:38:04.437Z,90.44
2023-05-17T00:40:34.292Z,89.78
2023-05-17T00:43:02.752Z,90.02
2023-05-17T00:45:31.450Z,91.27
2023-05-17T00:48:00.101Z,91.26
2023-05-17T00:50:29.938Z,91.64
2023-05-17T00:52:58.587Z,92.39
2023-05-17T00:55:28.177Z,94.16
2023-05-17T00:57:58.697Z,95.49
2023-05-17T01:00:27.339Z,95.52
2023-05-17T01:02:55.888Z,95.59
2023-05-17T01:05:24.812Z,95.16
2023-05-17T01:07:53.283Z,95.67
2023-05-17T01:10:22.511Z,96.28
2023-05-17T01:13:07.233Z,97.14
2023-05-17T01:15:42.773Z,97.55
2023-05-17T01:18:19.660Z,97.70
2023-05-17T01:20:53.590Z,97.79
2023-05-17T01:23:36.824Z,97.93
2023-05-17T01:26:19.499Z,97.95
2023-05-17T01:28:54.735Z,97.91
2023-05-17T01:31:25.215Z,98.10
2023-05-17T01:33:53.735Z,98.10
2023-05-17T01:36:22.534Z,98.37
2023-05-17T01:38:50.975Z,98.72
2023-05-17T01:41:30.544Z,98.53
2023-05-17T01:44:11.786Z,98.24
2023-05-17T01:46:42.917Z,97.27
2023-05-17T01:49:22.942Z,96.81
2023-05-17T01:51:59.647Z,96.76
2023-05-17T01:54:38.214Z,96.71
2023-05-17T01:57:11.242Z,97.11
2023-05-17T01:59:43.240Z,97.01
2023-05-17T02:02:11.811Z,97.54
2023-05-17T02:04:40.332Z,98.18
2023-05-17T02:07:08.816Z,98.27
2023-05-17T02:09:37.748Z,98.70
2023-05-17T02:12:08.037Z,99.10
2023-05-17T02:14:36.497Z,99.26
2023-05-17T02:17:06.884Z,98.77
2023-05-17T02:19:35.462Z,98.88
2023-05-17T02:22:04.052Z,98.65
2023-05-17T02:24:32.530Z,98.94
2023-05-17T02:27:01.014Z,99.24
2023-05-17T02:29:29.471Z,100.00
2023-05-17T02:31:57.988Z,100.00
2023-05-17T02:34:27.918Z,100.00
2023-05-17T02:36:56.375Z,100.00
2023-05-17T02:39:24.870Z,100.00
2023-05-17T02:41:53.298Z,100.00
2023-05-17T02:44:21.755Z,100.00
2023-05-17T02:46:50.220Z,100.00
2023-05-17T02:49:18.691Z,100.00
2023-05-17T02:51:48.590Z,100.00
2023-05-17T02:54:17.326Z,100.00
2023-05-17T02:56:46.084Z,100.00
2023-05-17T02:59:16.248Z,100.00
2023-05-17T03:01:45.005Z,100.00
2023-05-17T03:04:13.877Z,100.00
2023-05-17T03:06:42.558Z,100.00
2023-05-17T03:09:12.385Z,100.00
2023-05-17T03:11:41.609Z,100.00
2023-05-17T03:14:18.066Z,100.00
2023-05-17T03:16:46.569Z,100.00
2023-05-17T03:19:15.705Z,100.00
2023-05-17T03:21:45.461Z,100.00
2023-05-17T03:24:17.327Z,100.00
2023-05-17T03:26:45.962Z,100.00
2023-05-17T03:29:15.003Z,100.00
2023-05-17T03:31:46.080Z,100.00
2023-05-17T03:34:15.691Z,100.00
2023-05-17T03:36:44.882Z,100.00
2023-05-17T03:39:13.424Z,100.00
2023-05-17T03:41:44.435Z,100.00
2023-05-17T03:44:12.877Z,100.00
2023-05-17T03:46:41.337Z,100.00
2023-05-17T03:49:10.944Z,100.00
2023-05-17T03:51:40.492Z,100.00
2023-05-17T03:54:09.073Z,100.00
2023-05-17T03:56:37.807Z,100.00
2023-05-17T03:59:07.660Z,100.00
2023-05-17T04:01:36.123Z,100.00
2023-05-17T04:04:06.059Z,100.00
2023-05-17T04:06:34.622Z,100.00
2023-05-17T04:09:04.700Z,100.00
2023-05-17T04:11:33.212Z,100.00
2023-05-17T04:14:01.694Z,100.00
2023-05-17T04:16:32.176Z,100.00
2023-05-17T04:19:02.320Z,100.00
2023-05-17T04:21:31.733Z,100.00
2023-05-17T04:24:00.178Z,100.00
2023-05-17T04:26:28.995Z,100.00
2023-05-17T04:28:57.397Z,100.00
2023-05-17T04:31:25.827Z,100.00
2023-05-17T04:33:55.824Z,100.00
2023-05-17T04:36:24.306Z,100.00
2023-05-17T04:38:53.230Z,100.00
2023-05-17T04:41:25.807Z,100.00
2023-05-17T04:43:54.400Z,100.00
2023-05-17T04:46:29.677Z,100.00
2023-05-17T04:49:00.221Z,100.00
2023-05-17T04:51:30.671Z,100.00
2023-05-17T04:54:01.015Z,100.00
2023-05-17T04:56:33.220Z,100.00
2023-05-17T04:59:02.708Z,100.00
2023-05-17T05:01:31.964Z,100.00
2023-05-17T05:04:21.714Z,100.00
2023-05-17T05:06:51.175Z,100.00
2023-05-17T05:09:22.421Z,100.00
2023-05-17T05:11:51.131Z,100.00
2023-05-17T05:14:19.589Z,100.00
2023-05-17T05:16:48.067Z,100.00
2023-05-17T05:19:17.734Z,100.00
2023-05-17T05:21:48.772Z,98.39
2023-05-17T05:24:17.440Z,97.63
2023-05-17T05:26:46.505Z,97.70
2023-05-17T05:29:16.514Z,96.49
2023-05-17T05:31:45.416Z,96.06
2023-05-17T05:34:15.153Z,96.07
2023-05-17T05:36:44.153Z,94.89
2023-05-17T05:39:14.065Z,93.81
2023-05-17T05:41:44.614Z,93.13
2023-05-17T05:44:13.095Z,91.75
2023-05-17T05:46:41.569Z,90.47
2023-05-17T05:49:10.636Z,89.39
2023-05-17T05:51:39.394Z,88.29
2023-05-17T05:54:08.427Z,87.23
2023-05-17T05:56:38.201Z,88.13
2023-05-17T05:59:08.281Z,87.57
2023-05-17T06:01:39.141Z,86.39
2023-05-17T06:04:07.586Z,86.28
2023-05-17T06:06:37.024Z,84.37
2023-05-17T06:09:07.066Z,84.55
2023-05-17T06:11:36.868Z,84.26
2023-05-17T06:14:06.833Z,85.25
2023-05-17T06:16:35.475Z,83.35
2023-05-17T06:19:04.815Z,82.73
2023-05-17T06:21:35.851Z,81.99
2023-05-17T06:24:05.277Z,83.03
2023-05-17T06:26:33.802Z,83.30
2023-05-17T06:29:03.974Z,81.91
2023-05-17T06:31:33.340Z,83.61
2023-05-17T06:34:01.825Z,83.86
2023-05-17T06:38:59.181Z,83.17
2023-05-17T06:41:27.723Z,81.66
2023-05-17T06:43:56.229Z,83.17
2023-05-17T06:46:26.168Z,83.66
2023-05-17T06:48:55.049Z,85.51
2023-05-17T06:51:24.569Z,85.18
2023-05-17T06:53:53.236Z,83.85
2023-05-17T06:56:21.728Z,85.10
2023-05-17T06:58:50.790Z,85.96
2023-05-17T07:01:20.591Z,85.17
2023-05-17T07:03:50.726Z,84.49
2023-05-17T07:06:19.214Z,83.28
2023-05-17T07:08:47.900Z,84.16
2023-05-17T07:11:17.833Z,85.81
2023-05-17T07:13:46.936Z,84.82
2023-05-17T07:16:15.403Z,80.59
2023-05-17T07:18:43.939Z,81.05
2023-05-17T07:21:13.956Z,80.68
2023-05-17T07:23:42.741Z,79.33
2023-05-17T07:26:11.212Z,79.31
2023-05-17T07:28:39.681Z,77.20
2023-05-17T07:31:09.666Z,73.31
2023-05-17T07:33:39.425Z,74.74
2023-05-17T07:36:08.756Z,74.71
2023-05-17T07:38:38.596Z,73.24
2023-05-17T07:41:09.790Z,71.07
2023-05-17T07:43:41.232Z,70.07
2023-05-17T07:46:09.989Z,65.31
2023-05-17T07:48:38.575Z,69.15
2023-05-17T07:51:07.099Z,69.80
2023-05-17T07:53:35.632Z,70.19
2023-05-17T07:56:06.013Z,70.20
2023-05-17T07:58:34.471Z,69.37
2023-05-17T08:01:03.011Z,67.21
2023-05-17T08:03:31.455Z,65.99
2023-05-17T08:05:59.950Z,58.40
2023-05-17T08:08:28.572Z,59.29
2023-05-17T08:10:58.481Z,61.32
2023-05-17T08:13:28.464Z,58.83
2023-05-17T08:16:05.324Z,55.87
2023-05-17T08:18:46.300Z,53.55
2023-05-17T08:21:15.114Z,54.35
2023-05-17T08:23:45.041Z,52.96
2023-05-17T08:26:14.510Z,52.30
2023-05-17T08:28:46.810Z,52.08
2023-05-17T08:31:15.270Z,50.19
2023-05-17T08:33:44.611Z,48.58
2023-05-17T08:36:13.389Z,47.42
2023-05-17T08:38:42.982Z,46.49
2023-05-17T08:41:14.427Z,47.54
2023-05-17T08:43:45.259Z,47.23
2023-05-17T08:46:15.830Z,48.38
2023-05-17T08:48:48.209Z,47.54
2023-05-17T08:51:19.128Z,46.99
2023-05-17T08:53:50.719Z,49.29
2023-05-17T08:56:23.109Z,49.68
2023-05-17T08:58:58.191Z,47.48
2023-05-17T09:01:29.871Z,47.99
2023-05-17T09:04:01.794Z,49.21
2023-05-17T09:06:34.045Z,50.46
2023-05-17T09:09:03.717Z,51.71
2023-05-17T09:11:34.123Z,52.16
2023-05-17T09:14:08.413Z,49.88
2023-05-17T09:16:39.072Z,50.28
2023-05-17T09:19:09.079Z,50.88
2023-05-17T09:21:39.544Z,51.29
2023-05-17T09:24:08.874Z,51.30
2023-05-17T09:26:42.190Z,49.96
2023-05-17T09:29:13.967Z,49.60
2023-05-17T09:31:43.974Z,48.57
2023-05-17T09:34:12.894Z,48.41
2023-05-17T09:36:44.635Z,49.63
2023-05-17T09:39:15.963Z,50.33
2023-05-17T09:41:47.078Z,49.80
2023-05-17T09:44:18.117Z,48.24
2023-05-17T09:46:48.972Z,47.62
2023-05-17T09:49:19.136Z,48.64
2023-05-17T09:51:49.980Z,49.55
2023-05-17T09:54:18.749Z,48.08
2023-05-17T09:56:54.798Z,48.28
2023-05-17T09:59:28.768Z,48.63
2023-05-17T10:01:59.343Z,48.09
2023-05-17T10:04:31.982Z,46.16
2023-05-17T10:07:02.199Z,46.72
2023-05-17T10:09:35.660Z,45.70
2023-05-17T10:12:06.071Z,44.90
2023-05-17T10:14:39.565Z,43.12
2023-05-17T10:17:09.623Z,43.67
2023-05-17T10:19:38.908Z,43.18
2023-05-17T10:22:21.747Z,42.09
2023-05-17T10:24:53.048Z,41.19
2023-05-17T10:27:22.738Z,41.69
2023-05-17T10:29:55.542Z,42.70
2023-05-17T10:32:28.395Z,43.64
2023-05-17T10:35:10.594Z,43.56
2023-05-17T10:37:42.315Z,42.69
2023-05-17T10:40:14.254Z,41.02
2023-05-17T10:42:50.877Z,40.33
2023-05-17T10:45:23.692Z,41.41
2023-05-17T10:47:53.615Z,41.20
2023-05-17T10:50:27.580Z,40.92
2023-05-17T10:53:00.540Z,41.39
2023-05-17T10:55:41.316Z,41.44
2023-05-17T10:58:21.365Z,42.27
2023-05-17T11:00:55.661Z,42.07
2023-05-17T11:03:30.169Z,41.12
2023-05-17T11:06:24.069Z,42.31
2023-05-17T11:09:09.246Z,42.08
2023-05-17T11:11:38.377Z,41.04
2023-05-17T11:14:08.655Z,41.26
2023-05-17T11:16:39.379Z,39.61
2023-05-17T11:19:13.234Z,38.66
2023-05-17T11:21:50.087Z,39.42
2023-05-17T11:24:27.999Z,39.64
2023-05-17T11:27:00.325Z,38.67
2023-05-17T11:29:31.468Z,39.19
2023-05-17T11:32:07.082Z,39.76
2023-05-17T11:34:35.981Z,40.17
2023-05-17T11:37:06.201Z,39.19
2023-05-17T11:39:35.897Z,36.92
2023-05-17T11:42:04.629Z,35.73
2023-05-17T11:44:35.072Z,35.76
2023-05-17T11:47:08.820Z,35.85
2023-05-17T11:52:09.737Z,35.92
2023-05-17T11:54:42.910Z,36.48
2023-05-17T11:57:13.022Z,36.60
2023-05-17T11:59:43.161Z,37.38
2023-05-17T12:02:29.173Z,37.35
2023-05-17T12:04:58.081Z,37.24
2023-05-17T12:07:27.799Z,35.59
2023-05-17T12:09:56.441Z,35.35
2023-05-17T12:12:24.956Z,36.24
2023-05-17T12:14:54.839Z,35.75
2023-05-17T12:17:33.853Z,35.78
2023-05-17T12:20:09.726Z,35.41
2023-05-17T12:22:54.540Z,35.14
2023-05-17T12:25:25.704Z,35.23
2023-05-17T12:27:54.614Z,34.96
2023-05-17T12:30:24.662Z,35.22
2023-05-17T12:32:54.829Z,35.10
2023-05-17T12:35:23.345Z,35.00
2023-05-17T12:37:52.418Z,34.68
2023-05-17T12:40:21.992Z,34.41
2023-05-17T12:42:51.007Z,34.77
2023-05-17T12:45:19.889Z,34.48
2023-05-17T12:47:51.215Z,34.68
2023-05-17T12:50:31.353Z,34.45
2023-05-17T12:53:00.060Z,32.69
2023-05-17T12:55:38.411Z,33.60
2023-05-17T12:58:21.860Z,34.15
2023-05-17T13:01:01.789Z,32.61
2023-05-17T13:03:31.417Z,33.18
2023-05-17T13:06:05.584Z,33.29
2023-05-17T13:08:34.940Z,32.83
2023-05-17T13:11:11.309Z,33.22
2023-05-17T13:13:40.656Z,33.70
2023-05-17T13:16:11.181Z,33.50
2023-05-17T13:18:51.417Z,34.04
2023-05-17T13:21:21.584Z,34.29
2023-05-17T13:23:52.240Z,35.01
2023-05-17T13:26:22.762Z,35.04
2023-05-17T13:28:51.421Z,34.97
2023-05-17T13:31:20.298Z,35.13
2023-05-17T13:33:50.220Z,35.08
2023-05-17T13:36:20.308Z,34.91
2023-05-17T13:38:51.123Z,34.66
2023-05-17T13:41:19.935Z,35.11
2023-05-17T13:43:48.364Z,33.13
2023-05-17T13:46:16.806Z,33.20
2023-05-17T13:48:45.352Z,32.41
2023-05-17T13:51:14.111Z,33.63
2023-05-17T13:53:44.292Z,32.28
2023-05-17T13:56:12.968Z,32.37
2023-05-17T13:58:41.517Z,32.56
2023-05-17T14:01:10.302Z,33.00
2023-05-17T14:03:38.898Z,32.01
2023-05-17T14:06:07.962Z,32.06
2023-05-17T14:08:36.485Z,32.25
2023-05-17T14:11:06.522Z,31.48
2023-05-17T14:13:35.067Z,31.44
2023-05-17T14:16:05.294Z,31.84
2023-05-17T14:18:33.917Z,32.54
2023-05-17T14:21:03.573Z,31.64
2023-05-17T14:23:32.045Z,31.93
2023-05-17T14:26:01.692Z,31.41
2023-05-17T14:28:31.510Z,31.47
2023-05-17T14:31:00.038Z,31.24
2023-05-17T14:33:28.834Z,31.12
2023-05-17T14:35:58.398Z,31.24
2023-05-17T14:38:26.853Z,31.43
2023-05-17T14:40:55.403Z,31.50
2023-05-17T14:43:24.562Z,31.66
2023-05-17T14:45:54.462Z,32.15
2023-05-17T14:48:24.596Z,31.75
2023-05-17T14:50:53.740Z,30.99
2023-05-17T14:53:23.364Z,31.24
2023-05-17T14:55:52.883Z,30.84
2023-05-17T14:58:21.986Z,31.29
2023-05-17T15:00:58.827Z,31.10
2023-05-17T15:03:36.107Z,30.96
2023-05-17T15:06:09.507Z,31.20
2023-05-17T15:08:40.738Z,30.89
2023-05-17T15:11:10.131Z,30.15
2023-05-17T15:13:38.610Z,29.88
2023-05-17T15:16:08.584Z,30.34
2023-05-17T15:18:39.294Z,30.82
2023-05-17T15:21:08.053Z,31.46
2023-05-17T15:23:37.158Z,31.09
2023-05-17T15:26:05.675Z,31.11
2023-05-17T15:28:34.118Z,31.60
2023-05-17T15:31:03.584Z,30.36
2023-05-17T15:33:32.456Z,30.06
2023-05-17T15:36:02.972Z,29.78
2023-05-17T15:38:31.519Z,29.72
2023-05-17T15:41:08.084Z,29.48
2023-05-17T15:43:36.847Z,29.44
2023-05-17T15:46:05.444Z,30.13
2023-05-17T15:48:34.487Z,30.63
2023-05-17T15:51:05.053Z,29.36
2023-05-17T15:53:35.366Z,29.61
2023-05-17T15:56:04.546Z,30.54
2023-05-17T15:58:34.583Z,30.16
2023-05-17T16:01:05.707Z,30.35
2023-05-17T16:03:35.085Z,30.47
2023-05-17T16:06:06.110Z,30.67
2023-05-17T16:08:35.191Z,29.95
2023-05-17T16:11:04.676Z,30.32
2023-05-17T16:13:33.367Z,30.99
2023-05-17T16:16:02.069Z,31.19
2023-05-17T16:18:31.188Z,31.14
2023-05-17T16:21:03.766Z,30.94
2023-05-17T16:23:33.762Z,31.11
2023-05-17T16:26:02.827Z,30.78
2023-05-17T16:28:32.388Z,31.14
2023-05-17T16:31:00.924Z,31.39
2023-05-17T16:33:29.439Z,30.97
2023-05-17T16:35:59.445Z,31.13
2023-05-17T16:38:27.948Z,31.32
2023-05-17T16:41:25.702Z,31.50
2023-05-17T16:43:54.134Z,31.56
2023-05-17T16:46:24.760Z,31.70
2023-05-17T16:48:55.469Z,31.09
2023-05-17T16:51:24.354Z,30.99
2023-05-17T16:53:52.796Z,31.91
2023-05-17T16:56:22.287Z,31.73
2023-05-17T16:58:53.342Z,31.82
2023-05-17T17:01:21.822Z,31.52
2023-05-17T17:03:50.409Z,32.14
2023-05-17T17:06:18.915Z,32.25
2023-05-17T17:08:47.664Z,32.48
2023-05-17T17:11:21.816Z,32.13
2023-05-17T17:13:54.022Z,32.04
2023-05-17T17:16:22.751Z,31.76
2023-05-17T17:18:51.486Z,32.15
2023-05-17T17:21:20.220Z,32.04
2023-05-17T17:23:48.752Z,32.05
2023-05-17T17:26:17.615Z,32.33
2023-05-17T17:28:46.111Z,32.98
2023-05-17T17:31:16.540Z,33.34
2023-05-17T17:33:45.353Z,33.80
2023-05-17T17:36:14.163Z,35.19
2023-05-17T17:38:42.647Z,35.62
2023-05-17T17:41:11.541Z,35.54
2023-05-17T17:43:41.323Z,35.46
2023-05-17T17:46:09.968Z,35.94
2023-05-17T17:48:39.829Z,36.29
2023-05-17T17:51:08.444Z,36.48
2023-05-17T17:53:36.976Z,36.40
2023-05-17T17:56:07.129Z,35.99
2023-05-17T17:58:36.659Z,36.08
2023-05-17T18:01:05.748Z,36.43
2023-05-17T18:03:35.084Z,36.53
2023-05-17T18:06:05.840Z,36.29
2023-05-17T18:08:34.336Z,36.21
2023-05-17T18:11:03.544Z,36.08
2023-05-17T18:13:32.046Z,36.52
2023-05-17T18:16:01.056Z,37.29
2023-05-17T18:18:29.567Z,37.48
2023-05-17T18:20:58.065Z,37.71
2023-05-17T18:23:27.902Z,38.30
2023-05-17T18:25:56.360Z,38.82
2023-05-17T18:28:38.198Z,39.02
2023-05-17T18:31:10.694Z,39.04
2023-05-17T18:33:39.232Z,39.42
2023-05-17T18:36:08.169Z,39.30
2023-05-17T18:38:38.045Z,39.88
2023-05-17T18:41:06.591Z,39.89
2023-05-17T18:43:35.159Z,40.51
2023-05-17T18:46:05.660Z,40.73
2023-05-17T18:48:36.145Z,41.19
2023-05-17T18:51:04.982Z,41.57
2023-05-17T18:53:33.593Z,41.73
2023-05-17T18:56:04.986Z,42.35
2023-05-17T18:58:34.669Z,43.50
2023-05-17T19:01:03.270Z,44.76
2023-05-17T19:03:32.522Z,45.46
2023-05-17T19:06:03.476Z,46.12
2023-05-17T19:08:31.928Z,46.88
2023-05-17T19:11:03.602Z,46.41
2023-05-17T19:13:33.573Z,48.11
2023-05-17T19:16:03.156Z,48.80
2023-05-17T19:18:31.853Z,49.72
2023-05-17T19:21:00.614Z,49.81
2023-05-17T19:23:29.198Z,50.41
2023-05-17T19:25:57.792Z,51.44
2023-05-17T19:28:26.385Z,51.83
2023-05-17T19:30:56.664Z,51.85
2023-05-17T19:33:25.203Z,53.35
2023-05-17T19:35:53.835Z,52.84
2023-05-17T19:38:22.235Z,53.59
2023-05-17T19:40:50.854Z,53.37
2023-05-17T19:43:19.340Z,53.34
2023-05-17T19:45:47.868Z,52.59
2023-05-17T19:48:17.670Z,52.10
2023-05-17T19:50:46.193Z,52.41
2023-05-17T19:53:14.760Z,52.76
2023-05-17T19:55:43.398Z,52.54
2023-05-17T19:58:11.972Z,52.72
2023-05-17T20:00:40.722Z,52.47
2023-05-17T20:03:10.892Z,52.60
2023-05-17T20:05:40.845Z,52.67
2023-05-17T20:08:09.977Z,52.40
2023-05-17T20:10:38.928Z,52.78
2023-05-17T20:13:07.433Z,53.08
2023-05-17T20:15:36.120Z,52.67
2023-05-17T20:18:05.255Z,53.24
2023-05-17T20:20:33.924Z,52.80
2023-05-17T20:23:08.663Z,53.09
2023-05-17T20:25:38.072Z,52.74
2023-05-17T20:28:06.717Z,52.84
2023-05-17T20:30:35.354Z,53.17
2023-05-17T20:33:03.934Z,52.97
2023-05-17T20:35:32.572Z,53.27
2023-05-17T20:38:01.249Z,53.78
2023-05-17T20:40:31.359Z,53.54
2023-05-17T20:43:00.125Z,53.66
2023-05-17T20:45:29.886Z,53.56
2023-05-17T20:47:58.457Z,54.11
2023-05-17T20:50:27.116Z,54.35
2023-05-17T20:52:55.620Z,53.92
2023-05-17T20:55:24.126Z,54.14
2023-05-17T20:57:53.990Z,53.58
2023-05-17T21:00:23.337Z,53.70
2023-05-17T21:02:52.214Z,54.35
2023-05-17T21:05:21.753Z,54.55
2023-05-17T21:07:50.501Z,54.89
2023-05-17T21:10:19.081Z,54.85
2023-05-17T21:12:47.707Z,55.06
2023-05-17T21:15:17.720Z,55.20
2023-05-17T21:17:46.270Z,54.94
2023-05-17T21:20:15.510Z,55.79
2023-05-17T21:22:45.535Z,55.75
2023-05-17T21:25:14.081Z,56.25
2023-05-17T21:27:42.708Z,56.27
2023-05-17T21:30:14.627Z,56.37
2023-05-17T21:32:45.802Z,56.19
2023-05-17T21:35:14.334Z,57.02
2023-05-17T21:37:43.016Z,57.04
2023-05-17T21:40:12.309Z,57.45
2023-05-17T21:42:40.817Z,57.74
2023-05-17T21:45:11.507Z,58.49
2023-05-17T21:47:40.056Z,58.66
2023-05-17T21:50:11.834Z,58.59
2023-05-17T21:52:40.433Z,59.08
2023-05-17T21:55:10.806Z,59.71
2023-05-17T21:57:39.371Z,59.48
2023-05-17T22:00:12.684Z,60.05
2023-05-17T22:02:42.648Z,60.46
2023-05-17T22:05:12.820Z,61.10
2023-05-17T22:07:41.489Z,61.22
2023-05-17T22:10:10.693Z,61.35
2023-05-17T22:12:39.167Z,61.50
2023-05-17T22:15:10.026Z,62.02
2023-05-17T22:17:47.832Z,62.27
2023-05-17T22:20:26.295Z,62.08
2023-05-17T22:22:55.085Z,61.78
2023-05-17T22:25:23.821Z,62.38
2023-05-17T22:27:52.402Z,63.10
2023-05-17T22:30:21.691Z,63.46
2023-05-17T22:32:54.611Z,63.61
2023-05-17T22:35:24.924Z,64.26
2023-05-17T22:37:53.828Z,63.89
2023-05-17T22:40:22.630Z,65.25
2023-05-17T22:42:51.955Z,65.08
2023-05-17T22:45:20.653Z,65.81
2023-05-17T22:47:50.686Z,65.11
2023-05-17T22:50:20.227Z,65.77
2023-05-17T22:52:53.196Z,65.92
2023-05-17T22:55:21.864Z,65.87
2023-05-17T22:57:50.433Z,66.07
2023-05-17T23:00:19.636Z,66.74
2023-05-17T23:02:48.140Z,65.94
2023-05-17T23:05:16.964Z,66.33
2023-05-17T23:07:47.482Z,66.81
2023-05-17T23:10:17.468Z,66.31
2023-05-17T23:12:45.924Z,67.12
2023-05-17T23:15:16.321Z,67.42
2023-05-17T23:17:45.964Z,68.17
2023-05-17T23:20:14.840Z,67.88
2023-05-17T23:22:44.032Z,67.25
2023-05-17T23:25:12.464Z,67.26
2023-05-17T23:27:44.438Z,67.11
2023-05-17T23:30:13.500Z,68.15
2023-05-17T23:32:42.402Z,68.07
2023-05-17T23:35:11.115Z,68.51
2023-05-17T23:37:39.895Z,68.56
2023-05-17T23:40:10.477Z,69.14
2023-05-17T23:42:39.198Z,69.22
2023-05-17T23:45:10.524Z,69.70
2023-05-17T23:47:40.859Z,70.15
2023-05-17T23:50:10.809Z,70.55
2023-05-17T23:52:39.937Z,71.36
2023-05-17T23:55:09.822Z,71.80
2023-05-17T23:57:39.320Z,71.81
